Terminal Aerodrome Forecast
Issued by NWS

Home | Current Version | Previous Version | Text Only | Print | Product List | Glossary Off
Versions: 1 2 3 4 5 6 7 8 9 10 11 12 13 14 15 16 17 18

000
FTUS43 KBIS 251300 AAA
TAFMOT
TAF AMD
KMOT 251309Z 2513/2612 30015KT P6SM VCSH OVC008
     FM251400 29015KT P6SM SCT008 OVC015
     FM252100 29014KT P6SM SCT015 BKN035
     FM260000 29010KT P6SM SCT035 SCT140
     FM260300 26006KT P6SM SCT040 SCT100=

USA.gov is the U.S. government's official web portal to all federal, state and local government web resources and services.